logo
Search for airport 
image banner adimage banner adimage banner ad
image banner ad

VT65 - Central Vermont Medical Center

Located in Barre, United States

ICAO - VT65, IATA -

Data provided by Airmate  

General information

Coordinates: N44°13'10" W72°33'37"
Elevation is 960 feet MSL.
 
View others Airports in Vermont

Operational data

Special qualification required
Current time UTC:
Current local time:
Weather at : KMPV - Edward F Knapp State ( 2 km )
METAR: KMPV 131551Z AUTO 25011G26KT 220V280 10SM FEW030 SCT037 OVC065 08/01 A2942 RMK AO2 PK WND 29026/1546 SLP968 T00780011
TAF: KMPV 131120Z 1312/1412 20009KT P6SM VCSH BKN025 FM131800 27011KT P6SM -SHRA OVC023 FM132300 29011G18KT P6SM -SHRA OVC017 FM140300 30014G22KT P6SM VCSH OVC025 FM140800 29010KT P6SM BKN080
View NOTAMs / SUP AIP / TFR affecting this airport [VIEW]
Communications frequencies: [VIEW]

Runways:

Airport contact information

Address: Barre United States

Satellite view of VT65